• Join FlightAware (Why Join?)
  • Login
  • US Flag 
07:20AM EDT


 

Airport Tracker/Info


-or-


 

Live Flight TrackerFlight Track Log ✈ N789AM ✈ 15-Nov-2013 ✈ KCPK - KDXR

Flight Track Log - Related Links

Times and Time Zones

All times are in EST time to prevent confusion due to time zone crossing. See the N789AM flight status page for this flight to view local times or setup timezone preferences in your user account.

Time Position Orientation Groundspeed Altitude Reporting Facility
EST Latitude Longitude Course Direction KTS MPH feet Rate Location/Type
07:23PM 38.5311 -75.2386 26° Northeast 196 226 9,500  Level Washington Center
07:24PM 38.5792 -75.2092 26° Northeast 196 226 9,500  Level Washington Center
07:25PM 38.6269 -75.1850 22° Northeast 190 219 9,600  Climbing Washington Center
07:26PM 38.6747 -75.1556 26° Northeast 190 219 9,600 -60 Level Washington Center
07:27PM 38.7225 -75.1261 26° Northeast 190 219 9,500  Descending Washington Center
07:28PM 38.7706 -75.0992 24° Northeast 190 219 9,600  Climbing Washington Center
07:29PM 38.8183 -75.0694 26° Northeast 190 219 9,500 -60 Descending Washington Center
07:30PM 38.8683 -75.0425 23° Northeast 190 219 9,500  Level Washington Center
07:31PM 38.9181 -75.0100 27° Northeast 190 219 9,500  Level Washington Center
07:32PM 38.9639 -74.9803 27° Northeast 190 219 9,600  Climbing Washington Center
07:33PM 39.0136 -74.9531 23° Northeast 190 219 9,600 -60 Level Washington Center
07:34PM 39.0614 -74.9261 24° Northeast 190 219 9,500  Descending Washington Center
07:35PM 39.1092 -74.8961 26° Northeast 190 219 9,600  Climbing Washington Center
07:36PM 39.1569 -74.8661 26° Northeast 190 219 9,600  Level Washington Center
07:37PM 39.2047 -74.8389 24° Northeast 190 219 9,600  Level Washington Center
07:38PM 39.2525 -74.8089 26° Northeast 190 219 9,600  Level Washington Center
07:39PM 39.3003 -74.7789 26° Northeast 190 219 9,600  Level Washington Center
07:40PM 39.3481 -74.7517 24° Northeast 190 219 9,600  Level Washington Center
07:41PM 39.3956 -74.7214 26° Northeast 190 219 9,600  Level Washington Center
07:43PM 39.4906 -74.6661 24° Northeast 197 227 9,600  Level New York Center
07:44PM 39.5375 -74.6336 28° Northeast 197 227 9,600  Level New York Center
07:45PM 39.5864 -74.6042 25° Northeast 197 227 9,600  Level New York Center
07:46PM 39.6353 -74.5772 23° Northeast 197 227 9,600 60 Level New York Center
07:47PM 39.6842 -74.5475 25° Northeast 197 227 9,800  Climbing New York Center
07:48PM 39.7311 -74.5175 26° Northeast 197 227 9,600 -120 Descending New York Center
07:49PM 39.7797 -74.4903 23° Northeast 197 227 9,600  Level New York Center
07:50PM 39.8267 -74.4578 28° Northeast 197 227 9,600  Level New York Center
07:51PM 39.8756 -74.4306 23° Northeast 192 221 9,600  Level New York Center
07:52PM 39.9222 -74.4006 26° Northeast 192 221 9,600  Level New York Center
07:53PM 39.9647 -74.3731 26° Northeast 192 221 9,600 -60 Level New York Center
07:54PM 40.0114 -74.3456 24° Northeast 192 221 9,500 -60 Descending New York Center
07:55PM 40.0647 -74.3131 25° Northeast 187 215 9,500  Level New York Center
07:56PM 40.1114 -74.2856 24° Northeast 187 215 9,500  Level New York Center
07:57PM 40.1558 -74.2553 28° Northeast 187 215 9,500  Level New York Center
07:58PM 40.2025 -74.2278 24° Northeast 187 215 9,500  Level New York Center
07:59PM 40.2558 -74.1922 27° Northeast 182 209 9,600  Climbing New York Center
08:00PM 40.3003 -74.1672 23° Northeast 182 209 9,600  Level New York Center
08:01PM 40.3492 -74.1344 27° Northeast 182 209 9,600  Level New York Center
08:02PM 40.4000 -74.1000 27° Northeast 188 216 9,600  Level New York TRACON
08:03PM 40.4500 -74.0667 27° Northeast 188 216 9,600  Level New York TRACON
08:04PM 40.5000 -74.0333 27° Northeast 186 214 9,600  Level New York TRACON
08:05PM 40.5500 -74.0167 14° North 185 213 9,600  Level New York TRACON
08:06PM 40.5833 -73.9833 37° Northeast 188 216 9,600  Level New York TRACON
08:07PM 40.6333 -73.9500 27° Northeast 189 217 9,600  Level New York TRACON
08:08PM 40.6833 -73.9167 27° Northeast 190 219 9,600  Level New York TRACON
08:09PM 40.7333 -73.9000 14° North 189 217 9,600  Level New York TRACON
08:10PM 40.7833 -73.8667 27° Northeast 186 214 9,600  Level New York TRACON
08:11PM 40.8167 -73.8333 37° Northeast 185 213 9,600  Level New York TRACON
08:12PM 40.8667 -73.8000 27° Northeast 183 211 9,600  Level New York TRACON
08:13PM 40.9167 -73.7833 14° North 186 214 9,600 -60 Level New York TRACON
08:14PM 40.9667 -73.7500 27° Northeast 183 211 9,500 -540 Descending New York TRACON
08:15PM 41.0167 -73.7167 27° Northeast 204 235 8,600 -960 Descending New York TRACON
08:16PM 41.0667 -73.6833 27° Northeast 244 281 7,600 -1,020 Descending New York TRACON
08:17PM 41.1167 -73.6500 27° Northeast 206 237 6,600 -1,020 Descending New York TRACON
08:18PM 41.1667 -73.6167 27° Northeast 187 215 5,600 -1,020 Descending New York TRACON
08:19PM 41.2167 -73.5833 27° Northeast 184 212 4,600 -840 Descending New York TRACON
08:20PM 41.2500 -73.5500 37° Northeast 175 201 4,000 -600 Descending New York TRACON
08:21PM 41.3000 -73.5333 14° North 177 204 3,400 -600 Descending New York TRACON
08:22PM 41.3333 -73.4833 48° Northeast 192 221 2,800 -660 Descending New York TRACON
08:23PM 41.3500 -73.4333 66° East 177 204 2,100 -720 Descending New York TRACON
08:26PM 41.3667 -73.4667 27° Northeast  Level FlightAware Approximate
08:33PM 41.3715 -73.4822 27° Northeast  Level Estimated
08:34PM 41.3715 -73.4822 27° Northeast  Level Estimated
08:35PM 41.3715 -73.4822 27° Northeast  Level Estimated
08:36PM 41.3715 -73.4822 27° Northeast  Level Estimated